Shirahamamaru — JG4872 — position and weather

sailwx.info

Track history (hours):
 
Tides and Currents Weather Stations Pressure Air Temp Water Temp Dewpoint Dewpoint Depression Visibility Wind Speed Wind Dir Waves Ship Positions

Shirahamamaru

Last reported at 2014-Sep-03 01:34 UTC. Time now 2014-Sep-03 02:08 UTC.
Position N 35°11' E 139°48'.

Length 79 m; draft 3.2 m.

Type: Passenger vessel. MMSI: 431000239.

Date/timePositionNaut miles runAvg speedWind from/ knotsBaromVisibWave heightAir tempDewpointWater temp
2014-Sep-03 01:34N 35°11' E 139°48'4 4.1
2014-Sep-03 00:33N 35°13' E 139°44'2 2.4
2014-Sep-02 23:34N 35°12' E 139°46'2 1.6
2014-Sep-02 22:33N 35°13' E 139°45'2 2.3
2014-Sep-02 21:34N 35°11' E 139°47'1 0.1
2014-Sep-02 10:33N 35°12' E 139°46'2 2.1
2014-Sep-02 09:33N 35°11' E 139°48'4 4.2
2014-Sep-02 08:33N 35°13' E 139°44'5 5.1
2014-Sep-02 07:33N 35°10' E 139°49'5 5.0
2014-Sep-02 06:33N 35°13' E 139°44'3 3.3
2014-Sep-02 05:33N 35°12' E 139°47'2 2.4
2014-Sep-02 04:33N 35°13' E 139°45'3 3.1
2014-Sep-02 03:33N 35°11' E 139°48'4 4.0
2014-Sep-02 02:33N 35°13' E 139°44'4 4.1
2014-Sep-02 01:33N 35°11' E 139°48'4 4.2
2014-Sep-02 00:33N 35°13' E 139°44'2 2.4
2014-Sep-01 23:33N 35°12' E 139°46'1 1.4
2014-Sep-01 22:33N 35°13' E 139°45'2 2.2
2014-Sep-01 21:34N 35°11' E 139°47'1 0.1
2014-Sep-01 10:33N 35°12' E 139°46'2 2.4
2014-Sep-01 09:33N 35°11' E 139°48'4 4.4
2014-Sep-01 08:33N 35°13' E 139°43'5 5.3
2014-Sep-01 07:33N 35°10' E 139°49'5 5.2
2014-Sep-01 06:33N 35°13' E 139°44'3 3.3
2014-Sep-01 05:33N 35°11' E 139°47'2 2.4
2014-Sep-01 04:33N 35°13' E 139°45'3 3.4
2014-Sep-01 03:33N 35°11' E 139°48'5 4.7
2014-Sep-01 02:33N 35°13' E 139°43'5 4.6
2014-Sep-01 01:33N 35°11' E 139°48'4 4.4
2014-Sep-01 00:33N 35°13' E 139°43'3 2.6
2014-Aug-31 23:33N 35°12' E 139°46'1 1.4
2014-Aug-31 22:33N 35°13' E 139°45'2 2.3
2014-Aug-31 21:33N 35°11' E 139°47'1 0.1
2014-Aug-31 10:33N 35°12' E 139°46'2 2.3
2014-Aug-31 09:33N 35°11' E 139°48'4 4.3
2014-Aug-31 08:33N 35°13' E 139°44'5 5.3
2014-Aug-31 07:33N 35°10' E 139°49'5 5.3
2014-Aug-31 06:33N 35°13' E 139°44'3 3.4
2014-Aug-31 05:34N 35°11' E 139°47'2 2.3
2014-Aug-31 04:33N 35°13' E 139°45'3 3.2
2014-Aug-31 03:33N 35°11' E 139°48'4 4.2
2014-Aug-31 02:33N 35°13' E 139°44'4 4.2
2014-Aug-31 01:33N 35°11' E 139°48'4 3.9
2014-Aug-31 00:33N 35°13' E 139°44'2 2.3
2014-Aug-30 23:34N 35°12' E 139°47'2 1.5
2014-Aug-30 22:33N 35°13' E 139°45'2 2.2
2014-Aug-30 21:33N 35°11' E 139°47'1 0.1
2014-Aug-30 10:33N 35°12' E 139°46'2 1.9
2014-Aug-30 09:33N 35°11' E 139°48'4 4.1
2014-Aug-30 08:33N 35°13' E 139°44'5 5.1
2014-Aug-30 07:33N 35°10' E 139°49'5 4.9
2014-Aug-30 06:33N 35°13' E 139°44'3 3.1
2014-Aug-30 05:33N 35°11' E 139°47'2 2.1
2014-Aug-30 04:33N 35°12' E 139°45'3 2.9
2014-Aug-30 03:33N 35°11' E 139°48'4 4.4
2014-Aug-30 02:33N 35°13' E 139°43'4 4.4
2014-Aug-30 01:33N 35°11' E 139°48'4 4.0
2014-Aug-30 00:33N 35°13' E 139°44'2 2.1
2014-Aug-29 23:33N 35°12' E 139°46'1 1.4
2014-Aug-29 22:33N 35°13' E 139°44'2 2.4
2014-Aug-29 21:33N 35°12' E 139°47'1 0.1
2014-Aug-29 10:33N 35°12' E 139°46'2 2.0
2014-Aug-29 09:33N 35°11' E 139°48'4 4.1
2014-Aug-29 08:33N 35°13' E 139°44'5 5.0
2014-Aug-29 07:33N 35°10' E 139°49'5 5.0
2014-Aug-29 06:33N 35°13' E 139°44'3 3.3
2014-Aug-29 05:33N 35°11' E 139°47'2 2.2
2014-Aug-29 04:33N 35°13' E 139°45'3 2.9
2014-Aug-29 03:33N 35°11' E 139°48'4 4.1
2014-Aug-29 02:33N 35°13' E 139°44'4 4.3
2014-Aug-29 01:33N 35°11' E 139°48'4 4.3
2014-Aug-29 00:33N 35°13' E 139°44'2 2.3
2014-Aug-28 23:33N 35°12' E 139°46'2 1.6
2014-Aug-28 22:33N 35°13' E 139°44'3 2.6
2014-Aug-28 21:34N 35°11' E 139°47'1 0.1
2014-Aug-28 10:34N 35°12' E 139°46'2 2.2
2014-Aug-28 09:33N 35°11' E 139°48'4 4.2
2014-Aug-28 08:33N 35°13' E 139°44'5 5.2
2014-Aug-28 07:33N 35°10' E 139°49'5 5.1
2014-Aug-28 06:33N 35°13' E 139°44'3 3.2
2014-Aug-28 05:34N 35°11' E 139°47'2 2.2
2014-Aug-28 04:33N 35°13' E 139°45'3 3.1
2014-Aug-28 03:34N 35°11' E 139°48'4 4.3
2014-Aug-28 02:33N 35°13' E 139°43'4 4.4
2014-Aug-28 01:34N 35°11' E 139°48'4 4.3
2014-Aug-28 00:33N 35°13' E 139°43'3 2.6
2014-Aug-27 23:33N 35°12' E 139°46'1 1.4
2014-Aug-27 22:34N 35°13' E 139°45'2 2.3
2014-Aug-27 21:33N 35°11' E 139°47'2 0.2
2014-Aug-27 10:33N 35°13' E 139°46'3 2.7
2014-Aug-27 09:33N 35°11' E 139°48'4 4.2
2014-Aug-27 08:33N 35°13' E 139°44'5 5.2
2014-Aug-27 07:33N 35°10' E 139°49'5 5.4
2014-Aug-27 06:33N 35°13' E 139°43'4 3.7
2014-Aug-27 05:33N 35°11' E 139°47'2 2.3
2014-Aug-27 04:33N 35°13' E 139°45'3 3.2
2014-Aug-27 03:33N 35°11' E 139°48'4 4.4
2014-Aug-27 02:33N 35°13' E 139°44'4 4.4
2014-Aug-27 01:33N 35°10' E 139°48'4 4.2
2014-Aug-27 00:33N 35°13' E 139°44'2 2.3
2014-Aug-26 23:33N 35°12' E 139°46'1 1.4
2014-Aug-26 22:33N 35°13' E 139°45'2 2.2
2014-Aug-26 21:33N 35°11' E 139°47'1 0.1
2014-Aug-26 10:34N 35°12' E 139°46'2 2.0
2014-Aug-26 09:34N 35°11' E 139°48'4 4.1
2014-Aug-26 08:33N 35°13' E 139°44'5 5.1
2014-Aug-26 07:34N 35°10' E 139°49'5 4.9
2014-Aug-26 06:33N 35°13' E 139°44'3 3.0
2014-Aug-26 05:34N 35°12' E 139°47'2 2.0
2014-Aug-26 04:33N 35°13' E 139°45'3 3.0
2014-Aug-26 03:33N 35°11' E 139°48'4 4.1
2014-Aug-26 02:34N 35°13' E 139°44'4 4.3
2014-Aug-26 01:34N 35°11' E 139°48'4 4.2
2014-Aug-26 00:34N 35°13' E 139°44'2 2.3
2014-Aug-25 23:33N 35°12' E 139°46'1 1.3
2014-Aug-25 22:34N 35°13' E 139°45'2 2.1
2014-Aug-25 21:34N 35°12' E 139°47'2 0.1
2014-Aug-25 10:34N 35°13' E 139°46'2 2.5
2014-Aug-25 09:33N 35°11' E 139°48'4 4.1
2014-Aug-25 08:33N 35°13' E 139°44'5 5.3
2014-Aug-25 07:33N 35°10' E 139°49'5 5.2
2014-Aug-25 06:33N 35°13' E 139°44'3 3.4
2014-Aug-25 05:33N 35°11' E 139°47'3 2.6
2014-Aug-25 04:33N 35°13' E 139°45'3 3.3
2014-Aug-25 03:33N 35°11' E 139°48'4 4.1
2014-Aug-25 02:33N 35°13' E 139°44'4 4.1
2014-Aug-25 01:33N 35°10' E 139°48'4 4.2
2014-Aug-25 00:33N 35°13' E 139°44'2 2.3
2014-Aug-24 23:33N 35°12' E 139°46'1 1.3
2014-Aug-24 22:33N 35°13' E 139°45'2 2.3
2014-Aug-24 21:33N 35°11' E 139°47'1 0.1
2014-Aug-24 10:34N 35°13' E 139°46'2 2.4
2014-Aug-24 09:33N 35°11' E 139°48'4 4.2
2014-Aug-24 08:33N 35°13' E 139°44'5 5.0
2014-Aug-24 07:33N 35°10' E 139°49'5 5.1
2014-Aug-24 06:33N 35°13' E 139°44'3 3.2
2014-Aug-24 05:33N 35°12' E 139°47'2 2.2
2014-Aug-24 04:33N 35°13' E 139°45'3 3.2
2014-Aug-24 03:33N 35°11' E 139°48'4 4.3
2014-Aug-24 02:34N 35°13' E 139°43'  
Track history (hours):
 
Tides and Currents Weather Stations Pressure Air Temp Water Temp Dewpoint Dewpoint Depression Visibility Wind Speed Wind Dir Waves Ship Positions

Shirahamamaru

Last reported at 2014-Sep-03 01:34 UTC. Time now 2014-Sep-03 02:08 UTC.
Position N 35°11' E 139°48'.

Length 79 m; draft 3.2 m.

Type: Passenger vessel. MMSI: 431000239.

Date/timePositionNaut miles runAvg speedWind from/ knotsBaromVisibWave heightAir tempDewpointWater temp
2014-Sep-03 01:34N 35°11' E 139°48'4 4.1
2014-Sep-03 00:33N 35°13' E 139°44'2 2.4
2014-Sep-02 23:34N 35°12' E 139°46'2 1.6
2014-Sep-02 22:33N 35°13' E 139°45'2 2.3
2014-Sep-02 21:34N 35°11' E 139°47'1 0.1
2014-Sep-02 10:33N 35°12' E 139°46'2 2.1
2014-Sep-02 09:33N 35°11' E 139°48'4 4.2
2014-Sep-02 08:33N 35°13' E 139°44'5 5.1
2014-Sep-02 07:33N 35°10' E 139°49'5 5.0
2014-Sep-02 06:33N 35°13' E 139°44'3 3.3
2014-Sep-02 05:33N 35°12' E 139°47'2 2.4
2014-Sep-02 04:33N 35°13' E 139°45'3 3.1
2014-Sep-02 03:33N 35°11' E 139°48'4 4.0
2014-Sep-02 02:33N 35°13' E 139°44'4 4.1
2014-Sep-02 01:33N 35°11' E 139°48'4 4.2
2014-Sep-02 00:33N 35°13' E 139°44'2 2.4
2014-Sep-01 23:33N 35°12' E 139°46'1 1.4
2014-Sep-01 22:33N 35°13' E 139°45'2 2.2
2014-Sep-01 21:34N 35°11' E 139°47'1 0.1
2014-Sep-01 10:33N 35°12' E 139°46'2 2.4
2014-Sep-01 09:33N 35°11' E 139°48'4 4.4
2014-Sep-01 08:33N 35°13' E 139°43'5 5.3
2014-Sep-01 07:33N 35°10' E 139°49'5 5.2
2014-Sep-01 06:33N 35°13' E 139°44'3 3.3
2014-Sep-01 05:33N 35°11' E 139°47'2 2.4
2014-Sep-01 04:33N 35°13' E 139°45'3 3.4
2014-Sep-01 03:33N 35°11' E 139°48'5 4.7
2014-Sep-01 02:33N 35°13' E 139°43'5 4.6
2014-Sep-01 01:33N 35°11' E 139°48'4 4.4
2014-Sep-01 00:33N 35°13' E 139°43'3 2.6
2014-Aug-31 23:33N 35°12' E 139°46'1 1.4
2014-Aug-31 22:33N 35°13' E 139°45'2 2.3
2014-Aug-31 21:33N 35°11' E 139°47'1 0.1
2014-Aug-31 10:33N 35°12' E 139°46'2 2.3
2014-Aug-31 09:33N 35°11' E 139°48'4 4.3
2014-Aug-31 08:33N 35°13' E 139°44'5 5.3
2014-Aug-31 07:33N 35°10' E 139°49'5 5.3
2014-Aug-31 06:33N 35°13' E 139°44'3 3.4
2014-Aug-31 05:34N 35°11' E 139°47'2 2.3
2014-Aug-31 04:33N 35°13' E 139°45'3 3.2
2014-Aug-31 03:33N 35°11' E 139°48'4 4.2
2014-Aug-31 02:33N 35°13' E 139°44'4 4.2
2014-Aug-31 01:33N 35°11' E 139°48'4 3.9
2014-Aug-31 00:33N 35°13' E 139°44'2 2.3
2014-Aug-30 23:34N 35°12' E 139°47'2 1.5
2014-Aug-30 22:33N 35°13' E 139°45'2 2.2
2014-Aug-30 21:33N 35°11' E 139°47'1 0.1
2014-Aug-30 10:33N 35°12' E 139°46'2 1.9
2014-Aug-30 09:33N 35°11' E 139°48'4 4.1
2014-Aug-30 08:33N 35°13' E 139°44'5 5.1
2014-Aug-30 07:33N 35°10' E 139°49'5 4.9
2014-Aug-30 06:33N 35°13' E 139°44'3 3.1
2014-Aug-30 05:33N 35°11' E 139°47'2 2.1
2014-Aug-30 04:33N 35°12' E 139°45'3 2.9
2014-Aug-30 03:33N 35°11' E 139°48'4 4.4
2014-Aug-30 02:33N 35°13' E 139°43'4 4.4
2014-Aug-30 01:33N 35°11' E 139°48'4 4.0
2014-Aug-30 00:33N 35°13' E 139°44'2 2.1
2014-Aug-29 23:33N 35°12' E 139°46'1 1.4
2014-Aug-29 22:33N 35°13' E 139°44'2 2.4
2014-Aug-29 21:33N 35°12' E 139°47'1 0.1
2014-Aug-29 10:33N 35°12' E 139°46'2 2.0
2014-Aug-29 09:33N 35°11' E 139°48'4 4.1
2014-Aug-29 08:33N 35°13' E 139°44'5 5.0
2014-Aug-29 07:33N 35°10' E 139°49'5 5.0
2014-Aug-29 06:33N 35°13' E 139°44'3 3.3
2014-Aug-29 05:33N 35°11' E 139°47'2 2.2
2014-Aug-29 04:33N 35°13' E 139°45'3 2.9
2014-Aug-29 03:33N 35°11' E 139°48'4 4.1
2014-Aug-29 02:33N 35°13' E 139°44'4 4.3
2014-Aug-29 01:33N 35°11' E 139°48'4 4.3
2014-Aug-29 00:33N 35°13' E 139°44'2 2.3
2014-Aug-28 23:33N 35°12' E 139°46'2 1.6
2014-Aug-28 22:33N 35°13' E 139°44'3 2.6
2014-Aug-28 21:34N 35°11' E 139°47'1 0.1
2014-Aug-28 10:34N 35°12' E 139°46'2 2.2
2014-Aug-28 09:33N 35°11' E 139°48'4 4.2
2014-Aug-28 08:33N 35°13' E 139°44'5 5.2
2014-Aug-28 07:33N 35°10' E 139°49'5 5.1
2014-Aug-28 06:33N 35°13' E 139°44'3 3.2
2014-Aug-28 05:34N 35°11' E 139°47'2 2.2
2014-Aug-28 04:33N 35°13' E 139°45'3 3.1
2014-Aug-28 03:34N 35°11' E 139°48'4 4.3
2014-Aug-28 02:33N 35°13' E 139°43'4 4.4
2014-Aug-28 01:34N 35°11' E 139°48'4 4.3
2014-Aug-28 00:33N 35°13' E 139°43'3 2.6
2014-Aug-27 23:33N 35°12' E 139°46'1 1.4
2014-Aug-27 22:34N 35°13' E 139°45'2 2.3
2014-Aug-27 21:33N 35°11' E 139°47'2 0.2
2014-Aug-27 10:33N 35°13' E 139°46'3 2.7
2014-Aug-27 09:33N 35°11' E 139°48'4 4.2
2014-Aug-27 08:33N 35°13' E 139°44'5 5.2
2014-Aug-27 07:33N 35°10' E 139°49'5 5.4
2014-Aug-27 06:33N 35°13' E 139°43'4 3.7
2014-Aug-27 05:33N 35°11' E 139°47'2 2.3
2014-Aug-27 04:33N 35°13' E 139°45'3 3.2
2014-Aug-27 03:33N 35°11' E 139°48'4 4.4
2014-Aug-27 02:33N 35°13' E 139°44'4 4.4
2014-Aug-27 01:33N 35°10' E 139°48'4 4.2
2014-Aug-27 00:33N 35°13' E 139°44'2 2.3
2014-Aug-26 23:33N 35°12' E 139°46'1 1.4
2014-Aug-26 22:33N 35°13' E 139°45'2 2.2
2014-Aug-26 21:33N 35°11' E 139°47'1 0.1
2014-Aug-26 10:34N 35°12' E 139°46'2 2.0
2014-Aug-26 09:34N 35°11' E 139°48'4 4.1
2014-Aug-26 08:33N 35°13' E 139°44'5 5.1
2014-Aug-26 07:34N 35°10' E 139°49'5 4.9
2014-Aug-26 06:33N 35°13' E 139°44'3 3.0
2014-Aug-26 05:34N 35°12' E 139°47'2 2.0
2014-Aug-26 04:33N 35°13' E 139°45'3 3.0
2014-Aug-26 03:33N 35°11' E 139°48'4 4.1
2014-Aug-26 02:34N 35°13' E 139°44'4 4.3
2014-Aug-26 01:34N 35°11' E 139°48'4 4.2
2014-Aug-26 00:34N 35°13' E 139°44'2 2.3
2014-Aug-25 23:33N 35°12' E 139°46'1 1.3
2014-Aug-25 22:34N 35°13' E 139°45'2 2.1
2014-Aug-25 21:34N 35°12' E 139°47'2 0.1
2014-Aug-25 10:34N 35°13' E 139°46'2 2.5
2014-Aug-25 09:33N 35°11' E 139°48'4 4.1
2014-Aug-25 08:33N 35°13' E 139°44'5 5.3
2014-Aug-25 07:33N 35°10' E 139°49'5 5.2
2014-Aug-25 06:33N 35°13' E 139°44'3 3.4
2014-Aug-25 05:33N 35°11' E 139°47'3 2.6
2014-Aug-25 04:33N 35°13' E 139°45'3 3.3
2014-Aug-25 03:33N 35°11' E 139°48'4 4.1
2014-Aug-25 02:33N 35°13' E 139°44'4 4.1
2014-Aug-25 01:33N 35°10' E 139°48'4 4.2
2014-Aug-25 00:33N 35°13' E 139°44'2 2.3
2014-Aug-24 23:33N 35°12' E 139°46'1 1.3
2014-Aug-24 22:33N 35°13' E 139°45'2 2.3
2014-Aug-24 21:33N 35°11' E 139°47'1 0.1
2014-Aug-24 10:34N 35°13' E 139°46'2 2.4
2014-Aug-24 09:33N 35°11' E 139°48'4 4.2
2014-Aug-24 08:33N 35°13' E 139°44'5 5.0
2014-Aug-24 07:33N 35°10' E 139°49'5 5.1
2014-Aug-24 06:33N 35°13' E 139°44'3 3.2
2014-Aug-24 05:33N 35°12' E 139°47'2 2.2
2014-Aug-24 04:33N 35°13' E 139°45'3 3.2
2014-Aug-24 03:33N 35°11' E 139°48'4 4.3
2014-Aug-24 02:34N 35°13' E 139°43'  

Dump ship's entire track history